Time;durP1;ratioP1;P1;durP2;ratioP2;P2;SDS_P1;SDS_P2;PMS_P1;PMS_P2;Temp;Humidity;BMP_temperature;BMP_pressure;BME280_temperature;BME280_humidity;BME280_pressure;Samples;Min_cycle;Max_cycle;Signal;HPM_P1;HPM_P2
2022/11/29 00:01:11;;;;;;;47.20;21.48;;;5.60;99.90;;;;;;5062523;28;20060;-72
2022/11/29 00:03:37;;;;;;;49.58;20.83;;;5.50;99.90;;;;;;5062785;28;20052;-73
2022/11/29 00:06:08;;;;;;;40.17;19.40;;;5.50;99.90;;;;;;5060637;28;20063;-73
2022/11/29 00:08:35;;;;;;;41.40;19.00;;;5.50;99.90;;;;;;5061663;28;20461;-72
2022/11/29 00:11:06;;;;;;;43.88;21.23;;;5.50;99.90;;;;;;5050848;28;20101;-71
2022/11/29 00:13:31;;;;;;;47.40;20.25;;;5.50;99.90;;;;;;5062360;28;20114;-72
2022/11/29 00:16:09;;;;;;;48.95;20.60;;;5.50;99.90;;;;;;5062206;28;20349;-71
2022/11/29 00:18:35;;;;;;;44.55;20.52;;;5.50;99.90;;;;;;5062182;28;20485;-71
2022/11/29 00:21:05;;;;;;;43.20;18.73;;;5.50;99.90;;;;;;5044398;28;20047;-73
2022/11/29 00:23:31;;;;;;;39.38;18.95;;;5.50;99.90;;;;;;5062135;28;20021;-73
2022/11/29 00:26:05;;;;;;;37.88;18.20;;;5.50;99.90;;;;;;5061799;28;20048;-70
2022/11/29 00:28:32;;;;;;;43.67;18.75;;;5.50;99.90;;;;;;5044057;28;20111;-72
2022/11/29 00:30:57;;;;;;;38.03;18.58;;;5.50;99.90;;;;;;5022022;28;20061;-70
2022/11/29 00:33:23;;;;;;;51.00;20.92;;;5.50;99.90;;;;;;5022383;28;20034;-71
2022/11/29 00:35:48;;;;;;;42.80;19.50;;;5.60;99.90;;;;;;5022210;28;20022;-69
2022/11/29 00:38:14;;;;;;;38.15;17.77;;;5.50;99.90;;;;;;5022849;28;20034;-71
2022/11/29 00:40:39;;;;;;;37.33;18.27;;;5.50;99.90;;;;;;5021544;28;20034;-72
2022/11/29 00:43:05;;;;;;;38.53;17.83;;;5.60;99.90;;;;;;5022106;28;20113;-72
2022/11/29 00:45:31;;;;;;;44.35;18.85;;;5.60;99.90;;;;;;5021650;28;20425;-72
2022/11/29 00:47:56;;;;;;;40.85;18.10;;;5.60;99.90;;;;;;5022565;28;20037;-71
2022/11/29 00:50:22;;;;;;;45.40;18.75;;;5.60;99.90;;;;;;5022489;28;20107;-74
2022/11/29 00:52:48;;;;;;;42.72;19.55;;;5.60;99.90;;;;;;5022415;28;20050;-71
2022/11/29 00:55:14;;;;;;;43.15;19.33;;;5.50;99.90;;;;;;5021039;28;20076;-71
2022/11/29 00:57:39;;;;;;;41.65;19.27;;;5.60;99.90;;;;;;5022292;28;20550;-72
2022/11/29 01:00:06;;;;;;;39.45;17.38;;;5.50;99.90;;;;;;5022381;28;20033;-71
2022/11/29 01:02:31;;;;;;;49.67;20.10;;;5.60;99.90;;;;;;5021897;28;20025;-71
2022/11/29 01:04:57;;;;;;;42.00;20.13;;;5.50;99.90;;;;;;5022176;28;20048;-71
2022/11/29 01:07:22;;;;;;;36.65;17.40;;;5.50;99.90;;;;;;5022098;28;20029;-71
2022/11/29 01:09:48;;;;;;;35.53;17.85;;;5.50;99.90;;;;;;5021037;28;20569;-70
2022/11/29 01:12:14;;;;;;;40.50;19.05;;;5.50;99.90;;;;;;5020806;28;20030;-72
2022/11/29 01:14:40;;;;;;;42.30;19.08;;;5.50;99.90;;;;;;5014265;28;20018;-71
2022/11/29 01:17:05;;;;;;;46.92;19.25;;;5.50;99.90;;;;;;5002586;28;20030;-72
2022/11/29 01:19:31;;;;;;;41.92;19.30;;;5.50;99.90;;;;;;5005535;28;20026;-73
2022/11/29 01:21:57;;;;;;;38.95;18.10;;;5.50;99.90;;;;;;5005560;28;20030;-73
2022/11/29 01:24:22;;;;;;;48.75;18.00;;;5.60;99.90;;;;;;5006181;28;20057;-70
2022/11/29 01:26:48;;;;;;;37.72;18.02;;;5.60;99.90;;;;;;5022749;28;20032;-70
2022/11/29 01:29:14;;;;;;;40.03;17.88;;;5.60;99.90;;;;;;5034782;28;20049;-70
2022/11/29 01:31:40;;;;;;;42.42;18.73;;;5.60;99.90;;;;;;5066224;28;20037;-71
2022/11/29 01:34:06;;;;;;;42.15;18.85;;;5.50;99.90;;;;;;5063971;28;20039;-74
2022/11/29 01:36:32;;;;;;;39.47;17.88;;;5.60;99.90;;;;;;5064500;28;20041;-73
2022/11/29 01:39:04;;;;;;;41.58;19.17;;;5.50;99.90;;;;;;5063872;28;20049;-72
2022/11/29 01:41:32;;;;;;;43.75;18.10;;;5.60;99.90;;;;;;5064031;28;20021;-72
2022/11/29 01:44:05;;;;;;;41.20;19.52;;;5.60;99.90;;;;;;5063294;28;20044;-71
2022/11/29 01:46:33;;;;;;;50.65;19.13;;;5.60;99.90;;;;;;5064563;28;20472;-71
2022/11/29 01:49:06;;;;;;;38.85;18.15;;;5.60;99.90;;;;;;5065259;28;20669;-72
2022/11/29 01:51:34;;;;;;;50.65;20.20;;;5.60;99.90;;;;;;5046771;28;20104;-74
2022/11/29 01:54:00;;;;;;;41.85;18.33;;;5.50;99.90;;;;;;5064728;28;20040;-74
2022/11/29 01:56:27;;;;;;;39.47;19.15;;;5.60;99.90;;;;;;5063045;28;20360;-72
2022/11/29 01:58:54;;;;;;;48.08;19.50;;;5.60;99.90;;;;;;5063682;28;20047;-72
2022/11/29 02:01:19;;;;;;;43.70;20.60;;;5.60;99.90;;;;;;5045736;28;20033;-73
2022/11/29 02:03:45;;;;;;;42.17;19.77;;;5.60;99.90;;;;;;5064963;28;20052;-72
2022/11/29 02:06:11;;;;;;;41.95;19.80;;;5.60;99.90;;;;;;5046790;28;20045;-73
2022/11/29 02:08:40;;;;;;;44.20;18.15;;;5.60;99.90;;;;;;5062828;28;20752;-72
2022/11/29 02:11:18;;;;;;;45.28;19.60;;;5.60;99.90;;;;;;5064463;28;20048;-71
2022/11/29 02:14:20;;;;;;;45.78;20.60;;;5.60;99.90;;;;;;5064927;28;20029;-72
2022/11/29 02:16:52;;;;;;;46.00;19.45;;;5.60;99.90;;;;;;5064563;28;20027;-71
2022/11/29 02:19:32;;;;;;;47.00;20.05;;;5.70;99.90;;;;;;5064907;28;20075;-73
2022/11/29 02:22:06;;;;;;;44.42;21.27;;;5.60;99.90;;;;;;5064933;28;20021;-72
2022/11/29 02:24:43;;;;;;;46.55;21.17;;;5.60;99.90;;;;;;5063804;28;20029;-73
2022/11/29 02:27:40;;;;;;;46.88;21.38;;;5.50;99.90;;;;;;5063933;28;20044;-71
2022/11/29 02:30:09;;;;;;;46.22;20.83;;;5.50;99.90;;;;;;5063745;28;20053;-72
2022/11/29 02:32:56;;;;;;;48.00;22.58;;;5.60;99.90;;;;;;5063865;28;20029;-73
2022/11/29 02:36:01;;;;;;;46.88;20.90;;;5.50;99.90;;;;;;5046871;28;20029;-70
2022/11/29 02:38:38;;;;;;;45.63;20.83;;;5.60;99.90;;;;;;5022735;28;20056;-71
2022/11/29 02:41:16;;;;;;;49.78;21.90;;;5.50;99.90;;;;;;5046574;28;20037;-71
2022/11/29 02:44:06;;;;;;;43.83;21.58;;;5.50;99.90;;;;;;5046126;28;20021;-72
2022/11/29 02:46:48;;;;;;;47.90;21.33;;;5.60;99.90;;;;;;5063642;28;20040;-71
2022/11/29 02:49:41;;;;;;;45.97;20.33;;;5.60;99.90;;;;;;5064274;28;20465;-71
2022/11/29 02:52:15;;;;;;;59.10;22.50;;;5.50;99.90;;;;;;5046028;28;20032;-72
2022/11/29 02:55:02;;;;;;;44.70;20.63;;;5.60;99.90;;;;;;5046138;28;20575;-73
2022/11/29 02:57:49;;;;;;;44.35;20.48;;;5.60;99.90;;;;;;5063852;28;20025;-74
2022/11/29 03:00:20;;;;;;;50.58;21.77;;;5.60;99.90;;;;;;5063790;28;20039;-73
2022/11/29 03:02:52;;;;;;;46.42;21.20;;;5.60;99.90;;;;;;5062982;28;20578;-71
2022/11/29 03:05:40;;;;;;;45.53;20.33;;;5.60;99.90;;;;;;5060395;28;20473;-72
2022/11/29 03:08:09;;;;;;;43.13;20.17;;;5.60;99.90;;;;;;5063703;28;20052;-73
2022/11/29 03:11:12;;;;;;;43.33;19.83;;;5.60;99.90;;;;;;5063895;28;20057;-72
2022/11/29 03:14:16;;;;;;;50.42;21.17;;;5.60;99.90;;;;;;5063265;28;20033;-71
2022/11/29 03:16:50;;;;;;;46.40;20.50;;;5.60;99.90;;;;;;4982101;28;20118;-72
2022/11/29 03:19:38;;;;;;;47.83;21.02;;;5.60;99.90;;;;;;5051202;28;20037;-72
2022/11/29 03:22:39;;;;;;;54.83;20.08;;;5.60;99.90;;;;;;5063561;28;20469;-73
2022/11/29 03:25:14;;;;;;;45.45;20.83;;;5.60;99.90;;;;;;5030133;28;20405;-74
2022/11/29 03:27:46;;;;;;;53.15;21.75;;;5.50;99.90;;;;;;5063270;28;20021;-73
2022/11/29 03:30:15;;;;;;;44.10;20.70;;;5.50;99.90;;;;;;5062532;28;20083;-72
2022/11/29 03:32:50;;;;;;;46.53;21.80;;;5.50;99.90;;;;;;5063304;28;20029;-72
2022/11/29 03:35:35;;;;;;;44.72;20.55;;;5.50;99.90;;;;;;5045246;28;20045;-74
2022/11/29 03:38:13;;;;;;;46.97;20.30;;;5.50;99.90;;;;;;5061765;28;20036;-72
2022/11/29 03:40:50;;;;;;;41.53;20.45;;;5.50;99.90;;;;;;5062619;28;20093;-71
2022/11/29 03:43:32;;;;;;;42.05;20.95;;;5.50;99.90;;;;;;5062969;28;20028;-74
2022/11/29 03:46:03;;;;;;;43.25;21.40;;;5.60;99.90;;;;;;5063330;28;20033;-69
2022/11/29 03:48:29;;;;;;;46.80;22.48;;;5.50;99.90;;;;;;5063079;28;20039;-72
2022/11/29 03:51:18;;;;;;;39.22;18.52;;;5.60;99.90;;;;;;5062891;28;20033;-70
2022/11/29 03:53:53;;;;;;;43.78;19.08;;;5.60;99.90;;;;;;5062849;28;20033;-71
2022/11/29 03:56:25;;;;;;;;;;;5.60;99.90;;;;;;5045565;28;20033;-71
2022/11/29 03:59:08;;;;;;;38.40;18.77;;;5.60;99.90;;;;;;5062890;28;19950;-72
2022/11/29 04:02:12;;;;;;;44.60;20.35;;;5.50;99.90;;;;;;5066006;28;20028;-72
2022/11/29 04:04:58;;;;;;;42.27;19.60;;;5.60;99.90;;;;;;5065574;28;20048;-73
2022/11/29 04:07:52;;;;;;;44.28;19.98;;;5.60;99.90;;;;;;5084385;28;20044;-75
2022/11/29 04:10:42;;;;;;;44.83;20.20;;;5.60;99.90;;;;;;5078657;28;20068;-72
2022/11/29 04:13:47;;;;;;;39.55;19.33;;;5.60;99.90;;;;;;5064198;28;20028;-72
2022/11/29 04:16:25;;;;;;;44.35;20.63;;;5.60;99.90;;;;;;5063659;28;20029;-75
2022/11/29 04:19:21;;;;;;;44.88;19.80;;;5.50;99.90;;;;;;5046140;28;20033;-72
2022/11/29 04:22:18;;;;;;;42.20;20.98;;;5.60;99.90;;;;;;5063651;28;20051;-73
2022/11/29 04:25:07;;;;;;;45.28;19.80;;;5.60;99.90;;;;;;5063715;28;20595;-73
2022/11/29 04:27:33;;;;;;;44.65;20.80;;;5.60;99.90;;;;;;5063772;28;20056;-74
2022/11/29 04:30:20;;;;;;;40.58;20.20;;;5.60;99.90;;;;;;5063395;28;20052;-72
2022/11/29 04:33:18;;;;;;;41.92;19.80;;;5.60;99.90;;;;;;5046040;28;20159;-73
2022/11/29 04:36:02;;;;;;;43.38;19.60;;;5.60;99.90;;;;;;5059433;28;20122;-74
2022/11/29 04:39:10;;;;;;;48.72;21.42;;;5.60;99.90;;;;;;5063730;28;20111;-72
2022/11/29 04:41:51;;;;;;;44.70;19.70;;;5.60;99.90;;;;;;5052858;28;20041;-72
2022/11/29 04:44:29;;;;;;;41.17;18.77;;;5.50;99.90;;;;;;5063721;28;20048;-73
2022/11/29 04:47:01;;;;;;;45.72;21.02;;;5.50;99.90;;;;;;5045704;28;20033;-73
2022/11/29 04:50:10;;;;;;;47.92;21.27;;;5.50;99.90;;;;;;5064117;28;20025;-72
2022/11/29 04:53:00;;;;;;;50.45;20.88;;;5.50;99.90;;;;;;5047376;28;20048;-74
2022/11/29 04:55:55;;;;;;;48.92;20.45;;;5.50;99.90;;;;;;5067955;28;20147;-72
2022/11/29 04:58:44;;;;;;;;;;;5.50;99.90;;;;;;5067811;28;20388;-72
2022/11/29 05:01:17;;;;;;;41.90;20.42;;;5.50;99.90;;;;;;5047778;28;19915;-71
2022/11/29 05:03:57;;;;;;;46.22;20.58;;;5.50;99.90;;;;;;5067714;28;20032;-72
2022/11/29 05:06:49;;;;;;;50.70;20.77;;;5.50;99.90;;;;;;5049279;28;20052;-71
2022/11/29 05:09:58;;;;;;;44.13;19.77;;;5.50;99.90;;;;;;5049579;28;20126;-70
2022/11/29 05:12:46;;;;;;;48.20;20.00;;;5.40;99.90;;;;;;5067841;28;20055;-72
2022/11/29 05:15:29;;;;;;;53.90;22.05;;;5.50;99.90;;;;;;5067163;28;20374;-73
2022/11/29 05:18:23;;;;;;;46.67;21.95;;;5.40;99.90;;;;;;5067799;28;20060;-72
2022/11/29 05:21:02;;;;;;;51.83;21.80;;;5.50;99.90;;;;;;5067242;28;20032;-72
2022/11/29 05:24:04;;;;;;;46.00;20.77;;;5.50;99.90;;;;;;5049597;28;20291;-75
2022/11/29 05:26:49;;;;;;;49.28;20.92;;;5.50;99.90;;;;;;5066821;28;20029;-72
2022/11/29 05:29:20;;;;;;;;;;;5.50;99.90;;;;;;5066824;28;20068;-72
2022/11/29 05:31:55;;;;;;;54.70;22.25;;;5.50;99.90;;;;;;5049185;28;19905;-72
2022/11/29 05:34:59;;;;;;;46.03;22.50;;;5.50;99.90;;;;;;5066920;28;20020;-73
2022/11/29 05:37:38;;;;;;;47.22;20.33;;;5.50;99.90;;;;;;5048753;28;20029;-70
2022/11/29 05:40:24;;;;;;;51.00;21.65;;;5.50;99.90;;;;;;5067150;28;20040;-71
2022/11/29 05:43:21;;;;;;;45.95;22.05;;;5.40;99.90;;;;;;5066923;28;20037;-72
2022/11/29 05:46:11;;;;;;;46.75;21.50;;;5.50;99.90;;;;;;5066920;28;20045;-75
2022/11/29 05:48:46;;;;;;;54.08;22.50;;;5.50;99.90;;;;;;5048947;28;20029;-72
2022/11/29 05:51:26;;;;;;;51.33;22.85;;;5.50;99.90;;;;;;5066720;28;20028;-73
2022/11/29 05:54:04;;;;;;;49.60;22.58;;;5.50;99.90;;;;;;5049249;28;20078;-72
2022/11/29 05:56:46;;;;;;;49.58;22.23;;;5.50;99.90;;;;;;5066142;28;20044;-73
2022/11/29 05:59:20;;;;;;;45.08;22.35;;;5.50;99.90;;;;;;5066694;28;20075;-73
2022/11/29 06:02:03;;;;;;;49.40;22.52;;;5.50;99.90;;;;;;5066511;28;20033;-73
2022/11/29 06:04:54;;;;;;;42.38;20.52;;;5.60;99.90;;;;;;5047527;28;20120;-73
2022/11/29 06:07:43;;;;;;;43.22;20.88;;;5.50;99.90;;;;;;5066863;28;20071;-71
2022/11/29 06:10:16;;;;;;;49.00;20.70;;;5.50;99.90;;;;;;5066304;28;20036;-73
2022/11/29 06:12:54;;;;;;;45.90;21.23;;;5.50;99.90;;;;;;5066838;28;20045;-70
2022/11/29 06:16:00;;;;;;;43.13;19.60;;;5.50;99.90;;;;;;5065919;28;20040;-70
2022/11/29 06:19:10;;;;;;;46.55;20.88;;;5.50;99.90;;;;;;5066462;28;20031;-73
2022/11/29 06:21:58;;;;;;;52.13;23.23;;;5.50;99.90;;;;;;5065820;28;20480;-72
2022/11/29 06:24:27;;;;;;;53.40;22.05;;;5.40;99.90;;;;;;5048418;28;20029;-72
2022/11/29 06:27:05;;;;;;;48.42;19.45;;;5.40;99.90;;;;;;5066086;28;20029;-72
2022/11/29 06:29:37;;;;;;;45.03;21.42;;;5.40;99.90;;;;;;5064877;28;20527;-73
2022/11/29 06:32:20;;;;;;;45.85;20.17;;;5.40;99.90;;;;;;5063128;28;20032;-70
2022/11/29 06:35:03;;;;;;;44.30;21.17;;;5.40;99.90;;;;;;5065516;28;20032;-70
2022/11/29 06:37:37;;;;;;;44.08;20.65;;;5.40;99.90;;;;;;5064541;28;20104;-73
2022/11/29 06:40:06;;;;;;;50.72;22.55;;;5.40;99.90;;;;;;5057627;28;20096;-71
2022/11/29 06:42:31;;;;;;;46.83;21.33;;;5.40;99.90;;;;;;5063281;28;20022;-71
2022/11/29 06:44:57;;;;;;;45.88;21.52;;;5.50;99.90;;;;;;5065461;28;20040;-72
2022/11/29 06:47:36;;;;;;;52.30;21.00;;;5.40;99.90;;;;;;5065032;28;20388;-71
2022/11/29 06:50:14;;;;;;;55.63;22.23;;;5.40;99.90;;;;;;5064476;28;20032;-71
2022/11/29 06:52:53;;;;;;;47.65;22.20;;;5.40;99.90;;;;;;5065702;28;20025;-72
2022/11/29 06:55:26;;;;;;;46.50;22.65;;;5.40;99.90;;;;;;5065559;28;20029;-70
2022/11/29 06:58:07;;;;;;;49.42;21.52;;;5.40;99.90;;;;;;5046947;28;20497;-71
2022/11/29 07:00:52;;;;;;;45.28;20.67;;;5.40;99.90;;;;;;5065221;28;20029;-72
2022/11/29 07:03:44;;;;;;;51.08;22.48;;;5.40;99.90;;;;;;5046972;28;20416;-71
2022/11/29 07:06:24;;;;;;;51.97;21.85;;;5.40;99.90;;;;;;5064556;28;20059;-71
2022/11/29 07:09:01;;;;;;;47.38;21.63;;;5.50;99.90;;;;;;5063382;28;20029;-71
2022/11/29 07:11:28;;;;;;;47.50;21.85;;;5.50;99.90;;;;;;5062427;28;20060;-72
2022/11/29 07:13:54;;;;;;;48.95;22.42;;;5.50;99.90;;;;;;5065239;28;20028;-70
2022/11/29 07:16:40;;;;;;;46.85;21.23;;;5.50;99.90;;;;;;5046252;28;20496;-72
2022/11/29 07:19:37;;;;;;;46.22;21.48;;;5.50;99.90;;;;;;5064307;28;20025;-71
2022/11/29 07:22:21;;;;;;;51.42;21.48;;;5.50;99.90;;;;;;5045830;28;20037;-69
2022/11/29 07:24:57;;;;;;;48.75;21.98;;;5.50;99.90;;;;;;5064051;28;20064;-72
2022/11/29 07:27:35;;;;;;;48.40;20.52;;;5.40;99.90;;;;;;5065203;28;20064;-70
2022/11/29 07:30:17;;;;;;;47.65;22.05;;;5.50;99.90;;;;;;5064525;28;20481;-71
2022/11/29 07:33:08;;;;;;;52.30;21.70;;;5.50;99.90;;;;;;5064578;28;20037;-71
2022/11/29 07:35:42;;;;;;;48.25;20.80;;;5.50;99.90;;;;;;5046719;28;20393;-72
2022/11/29 07:38:16;;;;;;;46.50;22.20;;;5.50;99.90;;;;;;5045233;28;20040;-73
2022/11/29 07:40:52;;;;;;;43.17;20.42;;;5.50;99.90;;;;;;5063624;28;20024;-72
2022/11/29 07:43:25;;;;;;;46.72;21.20;;;5.50;99.90;;;;;;5064071;28;20021;-71
2022/11/29 07:45:52;;;;;;;48.50;20.38;;;5.40;99.90;;;;;;5064426;28;20092;-72
2022/11/29 07:48:18;;;;;;;48.22;21.13;;;5.40;99.90;;;;;;5064870;28;20056;-68
2022/11/29 07:50:44;;;;;;;45.50;21.45;;;5.40;99.90;;;;;;5063945;28;20413;-71
2022/11/29 07:53:18;;;;;;;49.50;21.40;;;5.40;99.90;;;;;;5063387;28;20412;-70
2022/11/29 07:55:44;;;;;;;51.75;21.27;;;5.50;99.90;;;;;;5057038;28;20526;-71
2022/11/29 07:58:11;;;;;;;44.45;21.23;;;5.50;99.90;;;;;;5047430;28;20032;-69
2022/11/29 08:00:38;;;;;;;52.25;22.55;;;5.50;99.90;;;;;;5064094;28;20029;-71
2022/11/29 08:03:04;;;;;;;46.70;20.52;;;5.50;99.90;;;;;;5064232;28;20047;-71
2022/11/29 08:05:30;;;;;;;44.20;20.75;;;5.50;99.90;;;;;;5063655;28;20075;-71
2022/11/29 08:07:56;;;;;;;50.05;21.60;;;5.50;99.90;;;;;;5057887;28;20037;-70
2022/11/29 08:10:22;;;;;;;44.95;22.17;;;5.50;99.90;;;;;;5054404;28;20105;-70
2022/11/29 08:12:49;;;;;;;52.72;22.05;;;5.50;99.90;;;;;;5041764;28;20038;-71
2022/11/29 08:15:16;;;;;;;49.65;22.00;;;5.60;99.90;;;;;;5063039;28;20084;-69
2022/11/29 08:17:42;;;;;;;52.30;22.50;;;5.50;99.90;;;;;;5062618;28;20036;-71
2022/11/29 08:20:10;;;;;;;53.60;22.20;;;5.50;99.90;;;;;;5059403;28;20033;-72
2022/11/29 08:22:35;;;;;;;52.63;23.90;;;5.50;99.90;;;;;;5063070;28;20061;-73
2022/11/29 08:25:03;;;;;;;45.63;22.25;;;5.60;99.90;;;;;;5061980;28;20064;-74
2022/11/29 08:27:29;;;;;;;48.42;22.05;;;5.50;99.90;;;;;;5062653;28;20032;-71
2022/11/29 08:29:55;;;;;;;49.17;22.35;;;5.50;99.90;;;;;;5048308;28;20132;-69
2022/11/29 08:32:21;;;;;;;53.10;21.55;;;5.50;99.90;;;;;;5059612;28;20072;-72
2022/11/29 08:34:46;;;;;;;48.95;21.90;;;5.50;99.90;;;;;;5060065;28;20037;-72
2022/11/29 08:37:12;;;;;;;53.47;21.33;;;5.50;99.90;;;;;;5061251;28;20055;-70
2022/11/29 08:39:38;;;;;;;50.58;22.15;;;5.50;99.90;;;;;;5061975;28;20029;-73
2022/11/29 08:42:04;;;;;;;48.55;22.60;;;5.50;99.90;;;;;;5062295;28;20051;-72
2022/11/29 08:44:29;;;;;;;48.20;22.58;;;5.60;99.90;;;;;;5062246;28;20093;-74
2022/11/29 08:49:59;;;;;;;47.10;20.08;;;5.60;99.90;;;;;;5062107;28;20052;-72
2022/11/29 08:55:09;;;;;;;;;;;5.60;99.90;;;;;;5061381;28;20039;-70
2022/11/29 08:57:34;;;;;;;48.35;21.10;;;5.60;99.90;;;;;;5063014;28;19928;-69
2022/11/29 09:00:01;;;;;;;49.13;22.15;;;5.60;99.90;;;;;;5063687;28;20055;-72
2022/11/29 09:02:26;;;;;;;54.70;23.27;;;5.60;99.90;;;;;;5062667;28;20481;-72
2022/11/29 09:04:52;;;;;;;50.58;22.52;;;5.50;99.90;;;;;;5063312;28;20056;-68
2022/11/29 09:07:18;;;;;;;55.85;24.20;;;5.70;99.90;;;;;;5062260;28;20067;-72
2022/11/29 09:09:43;;;;;;;47.17;22.70;;;5.60;99.90;;;;;;5052530;28;20033;-70
2022/11/29 09:12:09;;;;;;;58.28;24.27;;;5.60;99.90;;;;;;5063747;28;20029;-71
2022/11/29 09:14:34;;;;;;;51.38;23.52;;;5.60;99.90;;;;;;5060913;28;20033;-71
2022/11/29 09:17:00;;;;;;;56.20;22.88;;;5.60;99.90;;;;;;5060279;28;20033;-73
2022/11/29 09:19:26;;;;;;;56.42;25.23;;;5.60;99.90;;;;;;5062422;28;20055;-73
2022/11/29 09:21:52;;;;;;;54.28;23.48;;;5.60;99.90;;;;;;5062522;28;20032;-72
2022/11/29 09:24:19;;;;;;;47.20;22.48;;;5.60;99.90;;;;;;5061724;28;20076;-73
2022/11/29 09:26:47;;;;;;;50.75;22.55;;;5.60;99.90;;;;;;5062522;28;20330;-74
2022/11/29 09:29:14;;;;;;;56.15;23.13;;;5.60;99.90;;;;;;5043848;28;20056;-72
2022/11/29 09:31:40;;;;;;;53.58;24.08;;;5.60;99.90;;;;;;5062598;28;20029;-70
2022/11/29 09:34:06;;;;;;;50.20;23.80;;;5.70;99.90;;;;;;5048757;28;20029;-70
2022/11/29 09:36:32;;;;;;;57.25;24.35;;;5.70;99.90;;;;;;5043955;28;20076;-73
2022/11/29 09:39:03;;;;;;;52.38;23.15;;;5.60;99.90;;;;;;5062931;28;20443;-70
2022/11/29 09:41:31;;;;;;;47.47;22.85;;;5.80;99.90;;;;;;5065209;28;20021;-69
2022/11/29 09:44:20;;;;;;;51.60;24.38;;;5.70;99.90;;;;;;5063895;28;20056;-70
2022/11/29 09:47:02;;;;;;;49.75;22.30;;;5.70;99.90;;;;;;5060303;28;20116;-70
2022/11/29 09:49:54;;;;;;;49.22;21.55;;;5.70;99.90;;;;;;5048377;28;20054;-72
2022/11/29 09:52:47;;;;;;;47.88;23.15;;;5.70;99.90;;;;;;5063017;28;20179;-72
2022/11/29 09:55:32;;;;;;;48.60;22.55;;;5.60;99.90;;;;;;5062306;28;20032;-70
2022/11/29 09:57:59;;;;;;;54.05;24.40;;;5.70;99.90;;;;;;5066014;28;20041;-71
2022/11/29 10:00:27;;;;;;;56.00;24.27;;;5.70;99.90;;;;;;5056738;28;20028;-71
2022/11/29 10:02:59;;;;;;;45.47;21.85;;;5.70;99.90;;;;;;5066110;28;20089;-72
2022/11/29 10:05:43;;;;;;;51.90;23.40;;;5.70;99.90;;;;;;5065930;28;20039;-73
2022/11/29 10:08:30;;;;;;;49.38;21.85;;;5.70;99.90;;;;;;5075585;28;20037;-69
2022/11/29 10:11:08;;;;;;;49.08;22.38;;;5.70;99.90;;;;;;5050561;28;20040;-73
2022/11/29 10:13:34;;;;;;;51.50;23.92;;;5.70;99.90;;;;;;5066437;28;20021;-69
2022/11/29 10:16:46;;;;;;;52.17;21.52;;;5.70;99.90;;;;;;5059815;28;20038;-71
2022/11/29 10:19:24;;;;;;;46.95;22.60;;;5.70;99.90;;;;;;5037816;28;20144;-72
2022/11/29 10:22:14;;;;;;;55.30;23.17;;;5.70;99.90;;;;;;5045333;28;20053;-73
2022/11/29 10:24:45;;;;;;;54.60;23.52;;;5.70;99.90;;;;;;5027827;28;20033;-71
2022/11/29 10:27:22;;;;;;;51.65;23.10;;;5.70;99.90;;;;;;5054237;28;20053;-72
2022/11/29 10:29:50;;;;;;;51.17;23.48;;;5.70;99.90;;;;;;5065178;28;20060;-70
2022/11/29 10:32:19;;;;;;;44.95;20.55;;;5.70;99.90;;;;;;5065323;28;20026;-71
2022/11/29 10:34:45;;;;;;;49.90;23.13;;;5.70;99.90;;;;;;5065695;28;20025;-72
2022/11/29 10:37:18;;;;;;;54.38;24.90;;;5.70;99.90;;;;;;5065801;28;20049;-71
2022/11/29 10:39:53;;;;;;;54.30;24.65;;;5.70;99.90;;;;;;5065537;28;20029;-71
2022/11/29 10:45:29;;;;;;;56.17;23.67;;;5.80;99.90;;;;;;5064639;28;20052;-68
2022/11/29 10:48:14;;;;;;;54.70;24.40;;;5.80;99.90;;;;;;5050523;28;20417;-74
2022/11/29 10:50:45;;;;;;;53.15;24.85;;;5.80;99.90;;;;;;5046492;28;20037;-71
2022/11/29 10:53:16;;;;;;;56.17;24.48;;;5.80;99.90;;;;;;5062893;28;20032;-73
2022/11/29 10:55:50;;;;;;;54.28;24.52;;;5.90;99.90;;;;;;5060080;28;20032;-73
2022/11/29 10:58:24;;;;;;;50.10;23.08;;;5.90;99.90;;;;;;5051139;28;20051;-71
2022/11/29 11:00:58;;;;;;;;;;;5.90;99.90;;;;;;5056109;28;20037;-72
2022/11/29 11:03:28;;;;;;;59.10;25.27;;;5.90;99.90;;;;;;5063717;28;19935;-73
2022/11/29 11:06:00;;;;;;;55.95;24.25;;;5.90;99.90;;;;;;5063317;28;20036;-71
2022/11/29 11:08:27;;;;;;;44.75;22.00;;;6.00;99.90;;;;;;5059466;28;20050;-70
2022/11/29 11:10:54;;;;;;;48.10;21.33;;;6.00;99.90;;;;;;5056741;28;20648;-70
2022/11/29 11:13:27;;;;;;;48.45;22.85;;;6.00;99.90;;;;;;5058210;28;20032;-70
2022/11/29 11:16:14;;;;;;;57.42;24.17;;;5.90;99.90;;;;;;5063724;28;20036;-71
2022/11/29 11:18:39;;;;;;;54.78;24.70;;;5.90;99.90;;;;;;5063562;28;20048;-72
2022/11/29 11:21:10;;;;;;;58.67;24.83;;;5.90;99.90;;;;;;5063772;28;20020;-71
2022/11/29 11:23:41;;;;;;;54.63;23.02;;;6.00;99.90;;;;;;5055137;28;20029;-72
2022/11/29 11:26:10;;;;;;;52.88;24.35;;;5.90;99.90;;;;;;5061391;28;20104;-70
2022/11/29 11:28:43;;;;;;;55.20;24.70;;;5.90;99.90;;;;;;5059985;28;20032;-71
2022/11/29 11:31:11;;;;;;;53.67;23.17;;;5.90;99.90;;;;;;5048300;28;20507;-72
2022/11/29 11:33:44;;;;;;;55.85;26.60;;;5.90;99.90;;;;;;5056273;28;20029;-73
2022/11/29 11:36:18;;;;;;;58.47;24.25;;;5.90;99.90;;;;;;5056386;28;20211;-71
2022/11/29 11:39:10;;;;;;;51.20;25.42;;;5.90;99.90;;;;;;5050918;28;20060;-71
2022/11/29 11:44:31;;;;;;;56.67;23.65;;;5.90;99.90;;;;;;5062346;28;20527;-71
2022/11/29 11:46:58;;;;;;;53.38;25.00;;;5.90;99.90;;;;;;5060299;28;20072;-73
2022/11/29 11:49:29;;;;;;;54.42;24.70;;;5.90;99.90;;;;;;5051715;28;20033;-72
2022/11/29 11:51:58;;;;;;;55.20;25.63;;;6.00;99.90;;;;;;5050219;28;20064;-71
2022/11/29 11:54:26;;;;;;;60.65;27.98;;;6.00;99.90;;;;;;5035675;28;20028;-74
2022/11/29 11:56:54;;;;;;;58.42;28.13;;;6.00;99.90;;;;;;5048611;28;20034;-71
2022/11/29 11:59:26;;;;;;;53.95;25.50;;;6.00;99.90;;;;;;5041816;28;20033;-72
2022/11/29 12:01:53;;;;;;;55.70;26.17;;;6.00;99.90;;;;;;5037114;28;20036;-73
2022/11/29 12:04:25;;;;;;;64.00;27.13;;;6.00;99.90;;;;;;5058337;28;20078;-73
2022/11/29 12:07:04;;;;;;;71.50;27.92;;;6.00;99.90;;;;;;5042297;28;20082;-73
2022/11/29 12:09:47;;;;;;;60.22;25.50;;;6.00;99.90;;;;;;5039554;28;20562;-73
2022/11/29 12:12:40;;;;;;;68.10;29.42;;;6.00;99.90;;;;;;5059361;28;20060;-73
2022/11/29 12:15:37;;;;;;;65.57;29.05;;;6.10;99.90;;;;;;5056483;28;20044;-74
2022/11/29 12:18:33;;;;;;;73.47;30.98;;;6.10;99.90;;;;;;5056805;28;20037;-74
2022/11/29 12:21:10;;;;;;;63.35;30.20;;;6.10;99.90;;;;;;5060973;28;20111;-74
2022/11/29 12:23:53;;;;;;;73.55;31.10;;;6.10;99.90;;;;;;5059180;28;20028;-74
2022/11/29 12:26:29;;;;;;;69.22;30.75;;;6.10;99.90;;;;;;5059387;28;20697;-71
2022/11/29 12:28:55;;;;;;;71.00;30.50;;;6.00;99.90;;;;;;5043960;28;20418;-73
2022/11/29 12:31:32;;;;;;;74.45;30.67;;;6.10;99.90;;;;;;5059409;28;20393;-72
2022/11/29 12:34:19;;;;;;;70.43;31.08;;;6.10;99.90;;;;;;5055788;28;20036;-72
2022/11/29 12:37:00;;;;;;;71.78;31.38;;;6.10;99.90;;;;;;5059000;28;20032;-73
2022/11/29 12:39:38;;;;;;;72.15;32.38;;;6.20;99.90;;;;;;5054063;28;20075;-73
2022/11/29 12:42:07;;;;;;;71.00;32.25;;;6.20;99.90;;;;;;5058133;28;20037;-73
2022/11/29 12:44:39;;;;;;;76.78;34.92;;;6.20;99.90;;;;;;5062894;28;20428;-72
2022/11/29 12:47:25;;;;;;;81.38;33.08;;;6.20;99.90;;;;;;5061548;28;20063;-73
2022/11/29 12:50:03;;;;;;;79.35;34.17;;;6.20;99.90;;;;;;5061816;28;20117;-74
2022/11/29 12:53:07;;;;;;;90.40;34.10;;;6.20;99.90;;;;;;5058195;28;20041;-75
2022/11/29 12:55:42;;;;;;;83.82;34.85;;;6.30;99.90;;;;;;5043963;28;20048;-74
2022/11/29 12:58:47;;;;;;;82.07;34.80;;;6.30;99.90;;;;;;5042870;28;20053;-72
2022/11/29 13:01:32;;;;;;;83.75;34.90;;;6.30;99.90;;;;;;5037760;28;20080;-73
2022/11/29 13:04:19;;;;;;;87.70;36.30;;;6.40;99.90;;;;;;5052254;28;20036;-74
2022/11/29 13:07:04;;;;;;;94.40;36.58;;;6.30;99.90;;;;;;5061756;28;20100;-73
2022/11/29 13:09:51;;;;;;;83.05;37.92;;;6.30;99.90;;;;;;5061509;28;20128;-75
2022/11/29 13:12:39;;;;;;;85.20;37.03;;;6.30;99.90;;;;;;5061515;28;20028;-73
2022/11/29 13:15:37;;;;;;;82.18;35.42;;;6.40;99.90;;;;;;5052605;28;20033;-73
2022/11/29 13:18:22;;;;;;;82.53;36.97;;;6.40;99.90;;;;;;5015417;28;20037;-71
2022/11/29 13:20:57;;;;;;;80.40;35.88;;;6.40;99.90;;;;;;5046604;28;20032;-72
2022/11/29 13:23:45;;;;;;;91.85;39.00;;;6.40;99.90;;;;;;5053996;28;20024;-73
2022/11/29 13:26:15;;;;;;;81.28;36.03;;;6.40;99.90;;;;;;5065416;28;20140;-76
2022/11/29 13:28:43;;;;;;;82.32;35.42;;;6.40;99.90;;;;;;5066082;28;20028;-73
2022/11/29 13:31:26;;;;;;;88.32;37.30;;;6.40;99.90;;;;;;5025854;28;20061;-72
2022/11/29 13:34:27;;;;;;;79.43;33.72;;;6.40;99.90;;;;;;5025582;28;20030;-74
2022/11/29 13:36:56;;;;;;;83.15;34.78;;;6.40;99.90;;;;;;5027259;28;20045;-74